createdAt,value
2022-08-10T00:01:52.691Z,25.10
2022-08-10T00:04:23.369Z,25.00
2022-08-10T00:06:53.137Z,24.90
2022-08-10T00:09:22.338Z,24.90
2022-08-10T00:11:49.996Z,24.70
2022-08-10T00:14:17.794Z,24.60
2022-08-10T00:16:45.396Z,24.50
2022-08-10T00:19:13.180Z,24.40
2022-08-10T00:21:46.359Z,24.30
2022-08-10T00:24:14.502Z,24.20
2022-08-10T00:27:52.365Z,24.20
2022-08-10T00:29:30.707Z,24.10
2022-08-10T00:31:59.481Z,24.20
2022-08-10T00:34:28.770Z,24.40
2022-08-10T00:36:56.966Z,24.50
2022-08-10T00:39:25.129Z,24.50
2022-08-10T00:42:02.275Z,24.60
2022-08-10T00:44:40.737Z,24.70
2022-08-10T00:47:21.278Z,24.90
2022-08-10T00:49:57.325Z,25.00
2022-08-10T00:52:25.983Z,25.10
2022-08-10T00:54:54.858Z,25.20
2022-08-10T00:57:22.426Z,25.20
2022-08-10T00:59:58.043Z,25.30
2022-08-10T01:02:33.061Z,25.30
2022-08-10T01:05:07.812Z,25.30
2022-08-10T01:08:01.083Z,25.40
2022-08-10T01:10:42.190Z,25.40
2022-08-10T01:13:15.692Z,25.50
2022-08-10T01:16:04.420Z,25.40
2022-08-10T01:18:38.411Z,25.50
2022-08-10T01:21:53.882Z,25.50
2022-08-10T01:24:59.812Z,25.50
2022-08-10T01:27:41.267Z,25.50
2022-08-10T01:30:11.604Z,25.50
2022-08-10T01:32:54.073Z,25.50
2022-08-10T01:35:31.885Z,25.50
2022-08-10T01:38:26.016Z,25.50
2022-08-10T01:41:07.050Z,25.50
2022-08-10T01:43:40.734Z,25.50
2022-08-10T01:46:11.042Z,25.50
2022-08-10T01:48:51.083Z,25.50
2022-08-10T01:51:32.931Z,25.50
2022-08-10T01:54:13.180Z,25.50
2022-08-10T01:56:46.953Z,25.50
2022-08-10T01:59:37.808Z,25.40
2022-08-10T02:02:09.423Z,25.40
2022-08-10T02:04:40.482Z,25.40
2022-08-10T02:07:13.523Z,25.40
2022-08-10T02:09:46.547Z,25.40
2022-08-10T02:12:18.292Z,25.40
2022-08-10T02:14:51.932Z,25.40
2022-08-10T02:17:57.310Z,25.40
2022-08-10T02:20:48.805Z,25.30
2022-08-10T02:23:21.178Z,25.30
2022-08-10T02:25:53.006Z,25.30
2022-08-10T02:28:30.190Z,25.30
2022-08-10T02:31:10.390Z,25.30
2022-08-10T02:33:57.163Z,25.20
2022-08-10T02:36:29.519Z,25.20
2022-08-10T02:39:00.869Z,25.20
2022-08-10T02:45:13.191Z,25.30
2022-08-10T02:45:21.827Z,25.20
2022-08-10T02:47:52.703Z,25.20
2022-08-10T02:50:36.666Z,25.20
2022-08-10T02:53:49.615Z,25.20
2022-08-10T02:56:12.490Z,25.20
2022-08-10T02:58:45.346Z,25.20
2022-08-10T03:01:17.562Z,25.10
2022-08-10T03:03:52.922Z,25.10
2022-08-10T03:06:25.645Z,25.20
2022-08-10T03:08:54.625Z,25.20
2022-08-10T03:12:37.158Z,25.10
2022-08-10T03:14:18.398Z,25.10
2022-08-10T03:16:47.712Z,25.10
2022-08-10T03:20:33.824Z,25.10
2022-08-10T03:22:05.073Z,25.10
2022-08-10T03:24:35.050Z,25.10
2022-08-10T03:27:04.602Z,25.10
2022-08-10T03:30:29.441Z,25.10
2022-08-10T03:32:23.274Z,25.10
2022-08-10T03:34:51.745Z,25.00
2022-08-10T03:37:19.553Z,25.00
2022-08-10T03:39:47.228Z,24.90
2022-08-10T03:42:16.366Z,24.90
2022-08-10T03:44:49.881Z,24.80
2022-08-10T03:47:20.176Z,24.80
2022-08-10T03:49:50.475Z,24.80
2022-08-10T03:52:20.001Z,24.90
2022-08-10T03:54:48.399Z,24.80
2022-08-10T03:57:16.246Z,24.80
2022-08-10T03:59:44.530Z,24.80
2022-08-10T04:02:42.233Z,24.80
2022-08-10T04:05:00.467Z,24.80
2022-08-10T04:07:28.773Z,24.90
2022-08-10T04:09:56.559Z,24.90
2022-08-10T04:12:26.652Z,24.90
2022-08-10T04:14:54.262Z,24.90
2022-08-10T04:18:03.843Z,24.90
2022-08-10T04:20:17.283Z,25.00
2022-08-10T04:22:46.870Z,25.10
2022-08-10T04:25:15.415Z,25.10
2022-08-10T04:27:44.324Z,25.10
2022-08-10T04:30:12.224Z,25.10
2022-08-10T04:32:41.113Z,25.10
2022-08-10T04:35:10.890Z,25.20
2022-08-10T04:37:46.909Z,25.20
2022-08-10T04:40:28.638Z,25.20
2022-08-10T04:43:02.425Z,25.30
2022-08-10T04:45:49.717Z,25.30
2022-08-10T04:48:40.839Z,25.30
2022-08-10T04:51:10.994Z,25.30
2022-08-10T04:54:49.804Z,25.40
2022-08-10T05:05:58.039Z,25.60
2022-08-10T05:08:44.359Z,25.60
2022-08-10T05:11:36.971Z,25.70
2022-08-10T05:14:04.514Z,25.70
2022-08-10T05:16:32.711Z,25.80
2022-08-10T05:19:00.123Z,25.80
2022-08-10T05:22:04.662Z,25.80
2022-08-10T05:24:14.957Z,25.90
2022-08-10T05:27:00.385Z,26.00
2022-08-10T05:29:29.846Z,26.00
2022-08-10T05:31:57.327Z,26.10
2022-08-10T05:34:27.642Z,26.00
2022-08-10T05:36:55.959Z,26.00
2022-08-10T05:39:28.830Z,26.00
2022-08-10T05:42:01.138Z,26.10
2022-08-10T05:44:31.725Z,26.20
2022-08-10T05:46:59.127Z,26.20
2022-08-10T05:49:26.655Z,26.20
2022-08-10T05:51:54.190Z,26.20
2022-08-10T05:54:21.716Z,26.20
2022-08-10T05:56:53.346Z,26.30
2022-08-10T06:00:33.914Z,26.40
2022-08-10T06:02:31.747Z,26.50
2022-08-10T06:05:16.223Z,26.70
2022-08-10T06:07:52.929Z,27.70
2022-08-10T06:10:32.417Z,28.90
2022-08-10T06:13:29.851Z,30.20
2022-08-10T06:16:02.617Z,31.20
2022-08-10T06:18:30.917Z,32.00
2022-08-10T06:20:59.249Z,32.60
2022-08-10T06:23:29.709Z,32.80
2022-08-10T06:26:08.982Z,33.30
2022-08-10T06:29:00.207Z,33.10
2022-08-10T06:31:47.792Z,32.90
2022-08-10T06:34:27.679Z,33.20
2022-08-10T06:36:59.976Z,33.60
2022-08-10T06:39:36.388Z,34.20
2022-08-10T06:42:25.883Z,34.90
2022-08-10T06:44:55.691Z,34.90
2022-08-10T06:47:28.901Z,34.50
2022-08-10T06:50:01.667Z,33.60
2022-08-10T06:52:33.828Z,32.40
2022-08-10T06:55:05.447Z,31.60
2022-08-10T06:57:38.030Z,31.40
2022-08-10T07:00:07.101Z,31.20
2022-08-10T07:03:03.079Z,31.00
2022-08-10T07:05:40.601Z,31.80
2022-08-10T07:08:11.719Z,33.00
2022-08-10T07:10:41.142Z,33.50
2022-08-10T07:14:14.653Z,34.20
2022-08-10T07:16:09.667Z,34.60
2022-08-10T07:18:38.741Z,35.40
2022-08-10T07:21:09.918Z,35.80
2022-08-10T07:23:59.712Z,35.80
2022-08-10T07:26:28.851Z,35.90
2022-08-10T07:28:57.043Z,36.10
2022-08-10T07:31:33.009Z,36.30
2022-08-10T07:34:28.440Z,37.00
2022-08-10T07:37:02.200Z,37.30
2022-08-10T07:39:58.498Z,37.30
2022-08-10T07:42:22.725Z,35.70
2022-08-10T07:44:50.789Z,35.30
2022-08-10T07:47:53.884Z,35.90
2022-08-10T07:50:21.186Z,35.60
2022-08-10T07:52:51.439Z,36.00
2022-08-10T07:56:01.758Z,35.60
2022-08-10T07:58:09.147Z,35.40
2022-08-10T08:00:37.878Z,34.50
2022-08-10T08:03:07.575Z,35.10
2022-08-10T08:05:58.702Z,36.30
2022-08-10T08:08:26.005Z,35.90
2022-08-10T08:10:58.394Z,35.00
2022-08-10T08:13:28.263Z,35.30
2022-08-10T08:16:17.420Z,36.30
2022-08-10T08:18:58.379Z,35.90
2022-08-10T08:24:07.958Z,35.70
2022-08-10T08:24:32.832Z,36.30
2022-08-10T08:27:04.024Z,36.40
2022-08-10T08:29:36.915Z,36.70
2022-08-10T08:32:06.267Z,37.60
2022-08-10T08:34:37.334Z,37.00
2022-08-10T08:37:07.272Z,36.40
2022-08-10T08:39:36.983Z,35.70
2022-08-10T08:42:23.265Z,35.90
2022-08-10T08:45:08.378Z,36.50
2022-08-10T08:48:04.828Z,37.00
2022-08-10T08:50:56.646Z,36.80
2022-08-10T08:54:01.076Z,36.60
2022-08-10T08:56:50.090Z,36.80
2022-08-10T08:59:20.674Z,36.70
2022-08-10T09:02:12.116Z,36.50
2022-08-10T09:04:58.374Z,36.80
2022-08-10T09:07:59.922Z,36.60
2022-08-10T09:11:03.627Z,36.50
2022-08-10T09:13:44.422Z,36.90
2022-08-10T09:16:32.337Z,36.80
2022-08-10T09:19:19.635Z,36.70
2022-08-10T09:22:17.395Z,36.90
2022-08-10T09:24:53.014Z,36.80
2022-08-10T09:27:40.480Z,37.20
2022-08-10T09:30:13.428Z,37.60
2022-08-10T09:36:17.144Z,37.50
2022-08-10T09:36:23.503Z,37.20
2022-08-10T09:38:42.059Z,36.90
2022-08-10T09:41:40.653Z,37.10
2022-08-10T09:44:26.457Z,36.80
2022-08-10T09:46:59.862Z,36.90
2022-08-10T09:49:54.868Z,36.80
2022-08-10T09:52:29.039Z,36.50
2022-08-10T09:56:17.887Z,36.30
2022-08-10T09:58:25.453Z,36.00
2022-08-10T10:02:00.522Z,36.30
2022-08-10T10:04:46.861Z,36.40
2022-08-10T10:07:22.566Z,36.80
2022-08-10T10:10:03.568Z,37.20
2022-08-10T10:13:02.885Z,37.60
2022-08-10T10:15:59.523Z,38.10
2022-08-10T10:18:29.811Z,37.50
2022-08-10T10:21:52.398Z,37.10
2022-08-10T10:24:30.461Z,37.00
2022-08-10T10:27:16.066Z,37.00
2022-08-10T10:29:59.554Z,37.30
2022-08-10T10:32:44.477Z,37.40
2022-08-10T10:35:14.657Z,37.70
2022-08-10T10:38:01.920Z,37.60
2022-08-10T10:40:49.558Z,37.80
2022-08-10T10:43:44.154Z,37.70
2022-08-10T10:46:30.650Z,37.50
2022-08-10T10:49:26.827Z,37.60
2022-08-10T10:52:25.079Z,37.60
2022-08-10T10:55:17.144Z,37.20
2022-08-10T10:57:59.107Z,36.70
2022-08-10T11:00:49.902Z,36.90
2022-08-10T11:03:56.874Z,37.40
2022-08-10T11:07:03.664Z,37.60
2022-08-10T11:10:05.210Z,36.90
2022-08-10T11:12:46.947Z,35.70
2022-08-10T11:15:36.443Z,34.80
2022-08-10T11:18:39.298Z,34.00
2022-08-10T11:21:27.045Z,33.10
2022-08-10T11:24:47.492Z,32.60
2022-08-10T11:27:00.824Z,32.40
2022-08-10T11:29:31.215Z,32.30
2022-08-10T11:32:06.782Z,32.20
2022-08-10T11:35:12.504Z,32.30
2022-08-10T11:38:31.958Z,32.20
2022-08-10T11:42:06.744Z,32.10
2022-08-10T11:44:13.619Z,32.00
2022-08-10T11:46:56.954Z,31.90
2022-08-10T11:49:47.053Z,31.90
2022-08-10T11:52:23.048Z,31.90
2022-08-10T11:54:54.225Z,31.70
2022-08-10T11:57:53.174Z,31.70
2022-08-10T12:00:17.234Z,31.70
2022-08-10T12:03:06.076Z,31.70
2022-08-10T12:05:52.520Z,31.80
2022-08-10T12:10:06.867Z,31.70
2022-08-10T12:11:23.852Z,31.50
2022-08-10T12:14:20.387Z,31.40
2022-08-10T12:16:49.973Z,31.30
2022-08-10T12:20:01.611Z,31.20
2022-08-10T12:22:36.276Z,31.10
2022-08-10T12:25:09.324Z,31.40
2022-08-10T12:27:50.747Z,31.50
2022-08-10T12:30:22.466Z,31.50
2022-08-10T12:33:10.442Z,31.60
2022-08-10T12:36:17.419Z,31.80
2022-08-10T12:38:58.290Z,31.70
2022-08-10T12:41:45.096Z,31.70
2022-08-10T12:44:44.664Z,31.70
2022-08-10T12:47:14.598Z,31.70
2022-08-10T12:50:29.198Z,31.80
2022-08-10T12:52:50.025Z,31.80
2022-08-10T12:55:19.636Z,31.90
2022-08-10T12:57:52.641Z,31.70
2022-08-10T13:00:20.571Z,31.60
2022-08-10T13:02:49.439Z,31.50
2022-08-10T13:05:18.146Z,31.40
2022-08-10T13:08:25.655Z,31.40
2022-08-10T13:10:44.528Z,31.60
2022-08-10T13:13:15.669Z,31.80
2022-08-10T13:15:51.191Z,31.80
2022-08-10T13:18:29.280Z,31.90
2022-08-10T13:21:04.404Z,32.00
2022-08-10T13:24:03.542Z,31.90
2022-08-10T13:27:14.505Z,31.70
2022-08-10T13:29:33.207Z,31.60
2022-08-10T13:32:10.679Z,31.50
2022-08-10T13:34:45.797Z,31.70
2022-08-10T13:37:21.253Z,31.80
2022-08-10T13:39:58.811Z,31.80
2022-08-10T13:42:37.306Z,32.00
2022-08-10T13:45:14.687Z,32.10
2022-08-10T13:47:48.470Z,32.20
2022-08-10T13:50:33.561Z,32.00
2022-08-10T13:53:13.297Z,32.00
2022-08-10T13:56:01.712Z,31.90
2022-08-10T13:58:36.185Z,32.00
2022-08-10T14:01:33.167Z,31.80
2022-08-10T14:04:02.784Z,31.70
2022-08-10T14:06:32.343Z,31.70
2022-08-10T14:09:08.806Z,31.80
2022-08-10T14:11:39.468Z,31.80
2022-08-10T14:14:17.549Z,31.90
2022-08-10T14:16:48.766Z,32.00
2022-08-10T14:19:28.015Z,32.00
2022-08-10T14:21:56.819Z,31.90
2022-08-10T14:24:27.903Z,31.90
2022-08-10T14:27:18.068Z,32.00
2022-08-10T14:29:48.053Z,32.00
2022-08-10T14:32:18.622Z,32.00
2022-08-10T14:36:14.730Z,32.00
2022-08-10T14:37:37.811Z,32.10
2022-08-10T14:40:11.479Z,31.90
2022-08-10T14:42:50.970Z,31.90
2022-08-10T14:45:31.797Z,31.90
2022-08-10T14:48:09.992Z,32.00
2022-08-10T14:50:54.883Z,32.00
2022-08-10T14:53:27.269Z,32.00
2022-08-10T14:55:58.474Z,32.10
2022-08-10T14:58:39.547Z,32.10
2022-08-10T15:02:00.536Z,32.10
2022-08-10T15:04:18.555Z,32.00
2022-08-10T15:06:55.554Z,31.90
2022-08-10T15:09:27.852Z,31.90
2022-08-10T15:12:19.492Z,32.00
2022-08-10T15:14:55.350Z,32.00
2022-08-10T15:17:35.094Z,31.90
2022-08-10T15:20:20.785Z,31.90
2022-08-10T15:22:54.338Z,31.90
2022-08-10T15:25:26.121Z,31.90
2022-08-10T15:28:06.132Z,31.90
2022-08-10T15:30:43.063Z,32.00
2022-08-10T15:34:02.507Z,32.00
2022-08-10T15:36:58.809Z,32.00
2022-08-10T15:40:23.743Z,32.00
2022-08-10T15:43:20.889Z,32.00
2022-08-10T15:46:05.428Z,31.90
2022-08-10T15:48:49.761Z,31.90
2022-08-10T15:51:28.260Z,31.80
2022-08-10T15:54:12.088Z,31.80
2022-08-10T15:56:52.680Z,31.80
2022-08-10T15:59:29.782Z,31.70
2022-08-10T16:02:16.042Z,31.70
2022-08-10T16:04:55.918Z,31.60
2022-08-10T16:07:46.013Z,31.60
2022-08-10T16:10:28.102Z,31.60
2022-08-10T16:13:50.555Z,31.60
2022-08-10T16:15:56.641Z,31.60
2022-08-10T16:18:29.878Z,31.50
2022-08-10T16:21:03.185Z,31.50
2022-08-10T16:23:34.815Z,31.50
2022-08-10T16:26:14.862Z,31.40
2022-08-10T16:28:57.767Z,31.30
2022-08-10T16:31:27.757Z,31.30
2022-08-10T16:33:58.707Z,31.30
2022-08-10T16:36:45.062Z,31.30
2022-08-10T16:39:57.685Z,31.30
2022-08-10T16:42:18.113Z,31.20
2022-08-10T16:45:00.541Z,31.20
2022-08-10T16:47:29.537Z,31.20
2022-08-10T16:50:02.448Z,31.20
2022-08-10T16:52:49.793Z,31.20
2022-08-10T16:55:24.382Z,31.10
2022-08-10T16:58:15.218Z,31.00
2022-08-10T17:00:44.988Z,31.00
2022-08-10T17:04:04.530Z,30.90
2022-08-10T17:06:11.022Z,30.90
2022-08-10T17:08:48.554Z,30.80
2022-08-10T17:11:18.510Z,30.80
2022-08-10T17:13:47.024Z,30.70
2022-08-10T17:16:17.111Z,30.70
2022-08-10T17:18:46.630Z,30.60
2022-08-10T17:21:20.656Z,30.60
2022-08-10T17:23:54.923Z,30.50
2022-08-10T17:26:37.224Z,30.50
2022-08-10T17:29:59.266Z,30.40
2022-08-10T17:32:17.413Z,30.40
2022-08-10T17:34:48.315Z,30.30
2022-08-10T17:37:22.327Z,30.20
2022-08-10T17:40:12.447Z,30.20
2022-08-10T17:42:40.806Z,30.10
2022-08-10T17:45:46.305Z,30.00
2022-08-10T17:48:08.233Z,30.00
2022-08-10T17:50:37.998Z,29.90
2022-08-10T17:53:10.674Z,29.80
2022-08-10T17:55:40.526Z,29.70
2022-08-10T17:58:16.914Z,29.60
2022-08-10T18:00:50.627Z,29.40
2022-08-10T18:03:25.775Z,29.30
2022-08-10T18:06:17.754Z,29.20
2022-08-10T18:08:55.574Z,29.10
2022-08-10T18:11:26.309Z,29.10
2022-08-10T18:14:00.639Z,29.00
2022-08-10T18:16:31.685Z,28.90
2022-08-10T18:19:11.507Z,28.80
2022-08-10T18:21:41.805Z,28.70
2022-08-10T18:24:19.993Z,28.60
2022-08-10T18:26:53.805Z,28.50
2022-08-10T18:29:27.428Z,28.40
2022-08-10T18:31:58.779Z,28.30
2022-08-10T18:34:28.507Z,28.10
2022-08-10T18:36:57.193Z,28.10
2022-08-10T18:39:28.796Z,28.00
2022-08-10T18:42:06.467Z,28.00
2022-08-10T18:44:40.879Z,28.00
2022-08-10T18:47:14.977Z,27.90
2022-08-10T18:49:59.786Z,27.90
2022-08-10T18:52:30.801Z,27.80
2022-08-10T18:55:23.274Z,27.80
2022-08-10T18:58:01.090Z,27.80
2022-08-10T19:00:53.683Z,27.80
2022-08-10T19:03:53.415Z,27.70
2022-08-10T19:06:42.620Z,27.60
2022-08-10T19:09:47.115Z,27.50
2022-08-10T19:12:30.129Z,27.50
2022-08-10T19:15:20.511Z,27.40
2022-08-10T19:18:27.267Z,27.30
2022-08-10T19:21:05.227Z,27.30
2022-08-10T19:24:12.845Z,27.30
2022-08-10T19:27:17.908Z,27.20
2022-08-10T19:30:13.265Z,27.20
2022-08-10T19:33:00.138Z,27.10
2022-08-10T19:36:04.394Z,27.10
2022-08-10T19:38:34.114Z,27.00
2022-08-10T19:41:32.043Z,27.00
2022-08-10T19:44:09.171Z,27.00
2022-08-10T19:47:05.629Z,27.00
2022-08-10T19:49:46.831Z,27.00
2022-08-10T19:52:20.759Z,26.90
2022-08-10T19:55:05.453Z,26.90
2022-08-10T19:57:47.957Z,26.90
2022-08-10T20:00:23.053Z,26.90
2022-08-10T20:03:20.209Z,26.90
2022-08-10T20:06:23.535Z,26.90
2022-08-10T20:08:58.283Z,26.90
2022-08-10T20:11:46.480Z,26.90
2022-08-10T20:14:25.512Z,26.90
2022-08-10T20:17:00.294Z,26.80
2022-08-10T20:19:52.587Z,26.80
2022-08-10T20:22:34.880Z,26.80
2022-08-10T20:25:11.464Z,26.80
2022-08-10T20:28:05.224Z,26.80
2022-08-10T20:30:36.358Z,26.70
2022-08-10T20:33:16.930Z,26.70
2022-08-10T20:36:07.367Z,26.70
2022-08-10T20:38:48.262Z,26.70
2022-08-10T20:41:43.848Z,26.60
2022-08-10T20:44:39.865Z,26.60
2022-08-10T20:47:23.138Z,26.60
2022-08-10T20:50:02.971Z,26.60
2022-08-10T20:52:32.676Z,26.60
2022-08-10T20:55:05.472Z,26.60
2022-08-10T20:57:54.351Z,26.60
2022-08-10T21:00:30.651Z,26.60
2022-08-10T21:03:33.161Z,26.60
2022-08-10T21:06:44.046Z,26.50
2022-08-10T21:09:23.138Z,26.50
2022-08-10T21:12:18.842Z,26.40
2022-08-10T21:15:16.418Z,26.30
2022-08-10T21:17:56.747Z,26.30
2022-08-10T21:23:30.986Z,26.20
2022-08-10T21:25:41.516Z,26.30
2022-08-10T21:26:08.157Z,26.20
2022-08-10T21:28:57.638Z,26.20
2022-08-10T21:31:44.932Z,26.10
2022-08-10T21:34:53.050Z,26.10
2022-08-10T21:38:04.146Z,26.00
2022-08-10T21:41:18.101Z,26.00
2022-08-10T21:44:15.223Z,26.00
2022-08-10T21:48:06.577Z,26.00
2022-08-10T21:51:01.488Z,26.00
2022-08-10T21:54:01.573Z,26.00
2022-08-10T21:56:56.680Z,26.00
2022-08-10T22:00:11.131Z,26.00
2022-08-10T22:02:59.040Z,26.00
2022-08-10T22:05:49.006Z,26.00
2022-08-10T22:08:39.646Z,26.00
2022-08-10T22:11:37.884Z,25.90
2022-08-10T22:14:26.227Z,25.80
2022-08-10T22:18:00.908Z,25.70
2022-08-10T22:20:29.377Z,25.70
2022-08-10T22:23:52.221Z,25.70
2022-08-10T22:27:06.956Z,25.70
2022-08-10T22:30:06.688Z,25.60
2022-08-10T22:33:01.922Z,25.60
2022-08-10T22:36:04.373Z,25.60
2022-08-10T22:39:09.266Z,25.60
2022-08-10T22:42:04.513Z,25.60
2022-08-10T22:44:57.350Z,25.50
2022-08-10T22:47:46.195Z,25.50
2022-08-10T22:50:20.756Z,25.50
2022-08-10T22:52:57.399Z,25.30
2022-08-10T22:55:58.254Z,25.30
2022-08-10T22:58:39.029Z,25.30
2022-08-10T23:01:11.910Z,25.20
2022-08-10T23:03:51.795Z,25.20
2022-08-10T23:06:26.245Z,25.20
2022-08-10T23:09:01.331Z,25.30
2022-08-10T23:11:41.326Z,25.30
2022-08-10T23:14:12.131Z,25.40
2022-08-10T23:17:11.536Z,25.40
2022-08-10T23:19:45.299Z,25.50
2022-08-10T23:22:19.386Z,25.60
2022-08-10T23:25:09.578Z,25.60
2022-08-10T23:27:41.772Z,25.60
2022-08-10T23:30:17.585Z,25.60
2022-08-10T23:32:49.957Z,25.60
2022-08-10T23:36:05.512Z,25.50
2022-08-10T23:38:12.290Z,25.50
2022-08-10T23:40:48.199Z,25.50
2022-08-10T23:43:26.306Z,25.50
2022-08-10T23:46:06.254Z,25.50
2022-08-10T23:48:37.585Z,25.50
2022-08-10T23:51:16.126Z,25.50
2022-08-10T23:53:47.702Z,25.50
2022-08-10T23:56:20.880Z,25.40
2022-08-10T23:58:52.667Z,25.40
